createdAt,value
2016-09-30T00:00:23.030Z,1003.11
2016-09-30T00:01:23.538Z,1003.04
2016-09-30T00:02:23.003Z,1003.02
2016-09-30T00:03:23.347Z,1003.03
2016-09-30T00:04:23.339Z,1003.02
2016-09-30T00:05:23.232Z,1003
2016-09-30T00:06:23.141Z,1003.05
2016-09-30T00:07:23.347Z,1003
2016-09-30T00:08:23.198Z,1002.99
2016-09-30T00:09:23.407Z,1003
2016-09-30T00:10:23.325Z,1003.02
2016-09-30T00:11:23.144Z,1002.96
2016-09-30T00:12:23.308Z,1002.95
2016-09-30T00:13:23.745Z,1002.92
2016-09-30T00:14:23.537Z,1002.91
2016-09-30T00:15:23.381Z,1002.9
2016-09-30T00:16:23.539Z,1002.88
2016-09-30T00:17:23.587Z,1002.88
2016-09-30T00:18:24.032Z,1002.87
2016-09-30T00:19:23.384Z,1002.87
2016-09-30T00:20:23.602Z,1002.94
2016-09-30T00:21:24.018Z,1002.97
2016-09-30T00:22:23.998Z,1003.03
2016-09-30T00:23:24.710Z,1003.03
2016-09-30T00:24:23.552Z,1003.05
2016-09-30T00:25:23.725Z,1003.1
2016-09-30T00:26:24.309Z,1003.1
2016-09-30T00:27:24.015Z,1003.05
2016-09-30T00:28:24.486Z,1002.97
2016-09-30T00:29:24.187Z,1002.89
2016-09-30T00:30:24.235Z,1002.86
2016-09-30T00:31:24.076Z,1002.87
2016-09-30T00:32:24.022Z,1002.82
2016-09-30T00:33:24.451Z,1002.75
2016-09-30T00:34:24.318Z,1002.73
2016-09-30T00:35:24.081Z,1002.81
2016-09-30T00:36:24.177Z,1002.82
2016-09-30T00:37:24.144Z,1002.78
2016-09-30T00:38:24.172Z,1002.81
2016-09-30T00:39:24.157Z,1002.8
2016-09-30T00:40:24.673Z,1002.8
2016-09-30T00:41:24.465Z,1002.76
2016-09-30T00:42:24.162Z,1002.87
2016-09-30T00:43:24.333Z,1002.85
2016-09-30T00:44:24.108Z,1002.82
2016-09-30T00:45:24.549Z,1002.82
2016-09-30T00:46:24.656Z,1002.83
2016-09-30T00:47:24.303Z,1002.81
2016-09-30T00:48:24.370Z,1002.8
2016-09-30T00:49:24.384Z,1002.75
2016-09-30T00:50:24.393Z,1002.79
2016-09-30T00:51:24.240Z,1002.81
2016-09-30T00:52:24.702Z,1002.81
2016-09-30T00:53:24.667Z,1002.89
2016-09-30T00:54:24.212Z,1002.88
2016-09-30T00:55:24.515Z,1002.86
2016-09-30T00:56:24.629Z,1002.87
2016-09-30T00:57:24.297Z,1002.86
2016-09-30T00:58:24.401Z,1002.86
2016-09-30T00:59:25.253Z,1002.85
2016-09-30T01:00:24.532Z,1002.79
2016-09-30T01:01:24.346Z,1002.81
2016-09-30T01:02:24.317Z,1002.82
2016-09-30T01:03:24.874Z,1002.76
2016-09-30T01:04:24.287Z,1002.72
2016-09-30T01:05:24.755Z,1002.77
2016-09-30T01:06:24.675Z,1002.71
2016-09-30T01:07:24.456Z,1002.69
2016-09-30T01:08:24.665Z,1002.63
2016-09-30T01:09:24.649Z,1002.61
2016-09-30T01:10:24.679Z,1002.61
2016-09-30T01:11:25.228Z,1002.63
2016-09-30T01:12:24.841Z,1002.62
2016-09-30T01:13:24.813Z,1002.63
2016-09-30T01:14:24.814Z,1002.61
2016-09-30T01:15:25.403Z,1002.63
2016-09-30T01:16:24.802Z,1002.59
2016-09-30T01:17:24.905Z,1002.58
2016-09-30T01:18:25.209Z,1002.54
2016-09-30T01:19:24.768Z,1002.53
2016-09-30T01:20:24.933Z,1002.58
2016-09-30T01:21:24.915Z,1002.58
2016-09-30T01:22:24.996Z,1002.54
2016-09-30T01:23:25.149Z,1002.52
2016-09-30T01:24:24.792Z,1002.52
2016-09-30T01:25:25.252Z,1002.51
2016-09-30T01:26:24.882Z,1002.5
2016-09-30T01:27:25.015Z,1002.55
2016-09-30T01:28:25.139Z,1002.55
2016-09-30T01:29:24.987Z,1002.53
2016-09-30T01:30:25.728Z,1002.53
2016-09-30T01:31:25.481Z,1002.51
2016-09-30T01:32:25.084Z,1002.49
2016-09-30T01:33:25.076Z,1002.51
2016-09-30T01:34:24.964Z,1002.49
2016-09-30T01:35:25.213Z,1002.52
2016-09-30T01:36:25.172Z,1002.51
2016-09-30T01:37:25.070Z,1002.53
2016-09-30T01:38:25.182Z,1002.5
2016-09-30T01:39:25.519Z,1002.47
2016-09-30T01:40:25.157Z,1002.46
2016-09-30T01:41:25.067Z,1002.47
2016-09-30T01:42:25.408Z,1002.47
2016-09-30T01:43:25.208Z,1002.45
2016-09-30T01:44:25.123Z,1002.41
2016-09-30T01:45:25.482Z,1002.42
2016-09-30T01:46:25.737Z,1002.37
2016-09-30T01:47:25.541Z,1002.39
2016-09-30T01:48:25.449Z,1002.42
2016-09-30T01:49:25.435Z,1002.43
2016-09-30T01:50:25.522Z,1002.45
2016-09-30T01:51:25.451Z,1002.41
2016-09-30T01:52:25.551Z,1002.41
2016-09-30T01:53:25.548Z,1002.4
2016-09-30T01:54:25.400Z,1002.42
2016-09-30T01:55:25.495Z,1002.44
2016-09-30T01:56:25.469Z,1002.39
2016-09-30T01:57:25.772Z,1002.42
2016-09-30T01:58:25.917Z,1002.42
2016-09-30T01:59:25.836Z,1002.4
2016-09-30T02:00:25.730Z,1002.36
2016-09-30T02:01:25.705Z,1002.39
2016-09-30T02:02:26.642Z,1002.38
2016-09-30T02:03:25.841Z,1002.42
2016-09-30T02:04:25.670Z,1002.42
2016-09-30T02:05:25.658Z,1002.39
2016-09-30T02:06:25.713Z,1002.45
2016-09-30T02:07:25.774Z,1002.39
2016-09-30T02:08:25.775Z,1002.41
2016-09-30T02:09:25.888Z,1002.41
2016-09-30T02:10:25.774Z,1002.35
2016-09-30T02:11:25.975Z,1002.36
2016-09-30T02:12:26.170Z,1002.34
2016-09-30T02:13:25.968Z,1002.34
2016-09-30T02:14:25.807Z,1002.36
2016-09-30T02:15:26.052Z,1002.38
2016-09-30T02:16:25.901Z,1002.39
2016-09-30T02:17:26.079Z,1002.37
2016-09-30T02:18:26.290Z,1002.37
2016-09-30T02:19:26.089Z,1002.37
2016-09-30T02:20:26.276Z,1002.38
2016-09-30T02:21:26.294Z,1002.33
2016-09-30T02:22:26.247Z,1002.35
2016-09-30T02:23:26.430Z,1002.34
2016-09-30T02:24:26.215Z,1002.33
2016-09-30T02:25:26.435Z,1002.32
2016-09-30T02:26:26.190Z,1002.29
2016-09-30T02:27:26.188Z,1002.3
2016-09-30T02:28:26.800Z,1002.29
2016-09-30T02:29:26.218Z,1002.28
2016-09-30T02:30:26.482Z,1002.29
2016-09-30T02:31:26.429Z,1002.29
2016-09-30T02:32:26.387Z,1002.32
2016-09-30T02:33:26.538Z,1002.21
2016-09-30T02:34:26.415Z,1002.25
2016-09-30T02:35:26.447Z,1002.21
2016-09-30T02:36:26.315Z,1002.18
2016-09-30T02:37:26.319Z,1002.13
2016-09-30T02:38:27.191Z,1002.15
2016-09-30T02:39:26.840Z,1002.15
2016-09-30T02:40:26.692Z,1002.1
2016-09-30T02:41:26.485Z,1002.16
2016-09-30T02:42:26.868Z,1002.22
2016-09-30T02:43:26.392Z,1002.24
2016-09-30T02:44:26.904Z,1002.24
2016-09-30T02:45:26.414Z,1002.25
2016-09-30T02:46:26.675Z,1002.3
2016-09-30T02:47:26.953Z,1002.33
2016-09-30T02:48:26.598Z,1002.34
2016-09-30T02:49:27.511Z,1002.31
2016-09-30T02:50:26.797Z,1002.32
2016-09-30T02:51:27.029Z,1002.27
2016-09-30T02:52:26.723Z,1002.29
2016-09-30T02:53:26.731Z,1002.26
2016-09-30T02:54:26.747Z,1002.26
2016-09-30T02:55:27.518Z,1002.29
2016-09-30T02:56:26.740Z,1002.32
2016-09-30T02:57:27.089Z,1002.3
2016-09-30T02:58:26.876Z,1002.27
2016-09-30T02:59:27.257Z,1002.28
2016-09-30T03:00:27.289Z,1002.3
2016-09-30T03:01:27.070Z,1002.29
2016-09-30T03:02:27.179Z,1002.3
2016-09-30T03:03:26.772Z,1002.32
2016-09-30T03:04:27.206Z,1002.31
2016-09-30T03:05:27.267Z,1002.32
2016-09-30T03:06:26.997Z,1002.34
2016-09-30T03:07:26.913Z,1002.29
2016-09-30T03:08:27.238Z,1002.25
2016-09-30T03:09:27.144Z,1002.25
2016-09-30T03:10:27.767Z,1002.22
2016-09-30T03:11:27.346Z,1002.25
2016-09-30T03:12:27.288Z,1002.21
2016-09-30T03:13:27.139Z,1002.25
2016-09-30T03:14:27.353Z,1002.24
2016-09-30T03:15:27.309Z,1002.19
2016-09-30T03:16:27.209Z,1002.2
2016-09-30T03:17:27.544Z,1002.19
2016-09-30T03:18:27.437Z,1002.21
2016-09-30T03:19:27.485Z,1002.17
2016-09-30T03:20:27.105Z,1002.14
2016-09-30T03:21:27.342Z,1002.19
2016-09-30T03:22:27.373Z,1002.14
2016-09-30T03:23:27.393Z,1002.12
2016-09-30T03:24:27.446Z,1002.1
2016-09-30T03:25:27.713Z,1002.07
2016-09-30T03:26:28.311Z,1002.1
2016-09-30T03:27:27.489Z,1002.12
2016-09-30T03:28:27.519Z,1002.12
2016-09-30T03:29:27.929Z,1002.13
2016-09-30T03:30:27.918Z,1002.15
2016-09-30T03:31:27.511Z,1002.18
2016-09-30T03:32:27.816Z,1002.19
2016-09-30T03:33:27.669Z,1002.23
2016-09-30T03:34:27.665Z,1002.23
2016-09-30T03:35:27.508Z,1002.23
2016-09-30T03:36:28.348Z,1002.23
2016-09-30T03:37:27.913Z,1002.22
2016-09-30T03:38:28.452Z,1002.24
2016-09-30T03:39:27.818Z,1002.25
2016-09-30T03:40:27.845Z,1002.29
2016-09-30T03:41:27.815Z,1002.26
2016-09-30T03:42:27.633Z,1002.24
2016-09-30T03:43:27.800Z,1002.29
2016-09-30T03:44:27.945Z,1002.29
2016-09-30T03:45:27.941Z,1002.27
2016-09-30T03:46:27.749Z,1002.28
2016-09-30T03:47:28.057Z,1002.29
2016-09-30T03:48:28.131Z,1002.24
2016-09-30T03:49:27.919Z,1002.28
2016-09-30T03:50:27.853Z,1002.29
2016-09-30T03:51:27.971Z,1002.31
2016-09-30T03:52:27.877Z,1002.35
2016-09-30T03:53:28.467Z,1002.39
2016-09-30T03:54:28.137Z,1002.4
2016-09-30T03:55:28.283Z,1002.37
2016-09-30T03:56:28.626Z,1002.41
2016-09-30T03:57:28.274Z,1002.42
2016-09-30T03:58:28.089Z,1002.4
2016-09-30T03:59:28.286Z,1002.43
2016-09-30T04:00:28.449Z,1002.4
2016-09-30T04:01:28.717Z,1002.41
2016-09-30T04:02:28.163Z,1002.41
2016-09-30T04:03:29.203Z,1002.4
2016-09-30T04:04:28.201Z,1002.44
2016-09-30T04:05:29.331Z,1002.48
2016-09-30T04:06:28.515Z,1002.43
2016-09-30T04:07:29.301Z,1002.43
2016-09-30T04:08:28.524Z,1002.46
2016-09-30T04:09:28.404Z,1002.45
2016-09-30T04:10:28.451Z,1002.44
2016-09-30T04:11:28.679Z,1002.45
2016-09-30T04:12:28.519Z,1002.4
2016-09-30T04:13:28.368Z,1002.41
2016-09-30T04:14:28.209Z,1002.46
2016-09-30T04:15:28.408Z,1002.43
2016-09-30T04:16:29.020Z,1002.45
2016-09-30T04:17:28.528Z,1002.48
2016-09-30T04:18:28.688Z,1002.5
2016-09-30T04:19:28.452Z,1002.54
2016-09-30T04:20:29.138Z,1002.55
2016-09-30T04:21:28.619Z,1002.56
2016-09-30T04:22:29.018Z,1002.54
2016-09-30T04:23:29.112Z,1002.54
2016-09-30T04:24:28.485Z,1002.55
2016-09-30T04:25:28.664Z,1002.53
2016-09-30T04:26:28.663Z,1002.55
2016-09-30T04:27:29.125Z,1002.51
2016-09-30T04:28:29.068Z,1002.48
2016-09-30T04:29:29.147Z,1002.51
2016-09-30T04:30:29.291Z,1002.54
2016-09-30T04:31:29.653Z,1002.56
2016-09-30T04:32:29.870Z,1002.58
2016-09-30T04:33:29.359Z,1002.63
2016-09-30T04:34:29.532Z,1002.61
2016-09-30T04:35:29.049Z,1002.58
2016-09-30T04:36:29.511Z,1002.53
2016-09-30T04:37:29.133Z,1002.49
2016-09-30T04:38:29.462Z,1002.53
2016-09-30T04:39:29.313Z,1002.53
2016-09-30T04:40:29.768Z,1002.53
2016-09-30T04:41:29.329Z,1002.56
2016-09-30T04:42:29.337Z,1002.56
2016-09-30T04:43:29.082Z,1002.55
2016-09-30T04:44:29.637Z,1002.48
2016-09-30T04:45:29.616Z,1002.52
2016-09-30T04:46:29.191Z,1002.54
2016-09-30T04:47:29.359Z,1002.54
2016-09-30T04:48:29.640Z,1002.51
2016-09-30T04:49:29.738Z,1002.49
2016-09-30T04:50:29.594Z,1002.45
2016-09-30T04:51:29.105Z,1002.4
2016-09-30T04:52:29.424Z,1002.52
2016-09-30T04:53:29.287Z,1002.53
2016-09-30T04:54:29.970Z,1002.56
2016-09-30T04:55:29.311Z,1002.51
2016-09-30T04:56:29.433Z,1002.53
2016-09-30T04:57:29.848Z,1002.54
2016-09-30T04:58:29.661Z,1002.55
2016-09-30T04:59:29.374Z,1002.51
2016-09-30T05:00:29.707Z,1002.52
2016-09-30T05:01:29.309Z,1002.5
2016-09-30T05:02:29.425Z,1002.48
2016-09-30T05:03:29.418Z,1002.44
2016-09-30T05:04:29.490Z,1002.49
2016-09-30T05:05:30.198Z,1002.49
2016-09-30T05:06:30.097Z,1002.51
2016-09-30T05:07:29.577Z,1002.49
2016-09-30T05:08:29.681Z,1002.43
2016-09-30T05:09:30.660Z,1002.44
2016-09-30T05:10:29.596Z,1002.5
2016-09-30T05:11:30.209Z,1002.53
2016-09-30T05:12:29.955Z,1002.56
2016-09-30T05:13:29.466Z,1002.59
2016-09-30T05:14:29.670Z,1002.56
2016-09-30T05:15:29.748Z,1002.58
2016-09-30T05:16:29.585Z,1002.55
2016-09-30T05:17:29.575Z,1002.59
2016-09-30T05:18:29.862Z,1002.54
2016-09-30T05:19:29.714Z,1002.59
2016-09-30T05:20:29.711Z,1002.61
2016-09-30T05:21:29.990Z,1002.62
2016-09-30T05:22:29.850Z,1002.65
2016-09-30T05:23:30.047Z,1002.7
2016-09-30T05:24:29.826Z,1002.69
2016-09-30T05:25:30.466Z,1002.72
2016-09-30T05:26:30.333Z,1002.72
2016-09-30T05:27:29.865Z,1002.73
2016-09-30T05:28:30.045Z,1002.7
2016-09-30T05:29:30.514Z,1002.67
2016-09-30T05:30:30.384Z,1002.66
2016-09-30T05:31:30.659Z,1002.68
2016-09-30T05:32:30.047Z,1002.7
2016-09-30T05:33:30.506Z,1002.71
2016-09-30T05:34:30.643Z,1002.76
2016-09-30T05:35:30.519Z,1002.75
2016-09-30T05:36:31.359Z,1002.75
2016-09-30T05:37:30.426Z,1002.79
2016-09-30T05:38:30.513Z,1002.75
2016-09-30T05:39:30.996Z,1002.76
2016-09-30T05:40:30.512Z,1002.82
2016-09-30T05:41:30.273Z,1002.79
2016-09-30T05:42:30.558Z,1002.81
2016-09-30T05:43:30.698Z,1002.83
2016-09-30T05:44:30.385Z,1002.87
2016-09-30T05:45:30.492Z,1002.92
2016-09-30T05:46:31.001Z,1002.89
2016-09-30T05:47:30.877Z,1002.87
2016-09-30T05:48:30.354Z,1002.85
2016-09-30T05:49:30.292Z,1002.86
2016-09-30T05:50:30.517Z,1002.88
2016-09-30T05:51:30.517Z,1002.81
2016-09-30T05:52:30.460Z,1002.78
2016-09-30T05:53:30.664Z,1002.84
2016-09-30T05:54:30.606Z,1002.79
2016-09-30T05:55:30.714Z,1002.8
2016-09-30T05:56:30.607Z,1002.78
2016-09-30T05:57:30.451Z,1002.85
2016-09-30T05:58:30.625Z,1002.9
2016-09-30T05:59:31.077Z,1002.89
2016-09-30T06:00:30.576Z,1002.84
2016-09-30T06:01:30.768Z,1002.86
2016-09-30T06:02:30.768Z,1002.9
2016-09-30T06:03:30.756Z,1002.89
2016-09-30T06:04:30.627Z,1002.96
2016-09-30T06:05:30.623Z,1002.95
2016-09-30T06:06:30.629Z,1002.96
2016-09-30T06:07:31.017Z,1002.93
2016-09-30T06:08:30.778Z,1002.98
2016-09-30T06:09:30.982Z,1002.97
2016-09-30T06:10:30.843Z,1002.94
2016-09-30T06:11:30.962Z,1002.9
2016-09-30T06:12:31.179Z,1002.91
2016-09-30T06:13:31.075Z,1002.91
2016-09-30T06:14:31.032Z,1002.94
2016-09-30T06:15:31.190Z,1002.98
2016-09-30T06:16:30.749Z,1002.99
2016-09-30T06:17:30.773Z,1003.02
2016-09-30T06:18:30.797Z,1002.98
2016-09-30T06:19:30.807Z,1003.02
2016-09-30T06:20:30.825Z,1003
2016-09-30T06:21:30.865Z,1003.03
2016-09-30T06:22:30.878Z,1003.01
2016-09-30T06:23:30.905Z,1003.03
2016-09-30T06:24:30.901Z,1003.06
2016-09-30T06:25:30.940Z,1003.03
2016-09-30T06:26:30.938Z,1003.02
2016-09-30T06:27:30.967Z,1002.99
2016-09-30T06:28:31.057Z,1003.01
2016-09-30T06:29:31.173Z,1003.03
2016-09-30T06:30:31.243Z,1003.04
2016-09-30T06:31:31.215Z,1003.05
2016-09-30T06:32:31.205Z,1003.03
2016-09-30T06:33:31.129Z,1003.04
2016-09-30T06:34:31.254Z,1003.02
2016-09-30T06:35:31.428Z,1002.96
2016-09-30T06:36:31.366Z,1002.93
2016-09-30T06:37:31.946Z,1002.94
2016-09-30T06:38:31.750Z,1002.92
2016-09-30T06:39:31.797Z,1002.94
2016-09-30T06:40:31.676Z,1002.97
2016-09-30T06:41:31.734Z,1002.97
2016-09-30T06:42:31.728Z,1002.98
2016-09-30T06:43:31.620Z,1002.98
2016-09-30T06:44:31.682Z,1003
2016-09-30T06:45:31.837Z,1003.01
2016-09-30T06:46:31.636Z,1003.05
2016-09-30T06:47:31.792Z,1003.07
2016-09-30T06:48:31.644Z,1003.07
2016-09-30T06:49:31.835Z,1003.12
2016-09-30T06:50:31.950Z,1003.12
2016-09-30T06:51:31.783Z,1003.13
2016-09-30T06:52:32.062Z,1003.16
2016-09-30T06:53:31.753Z,1003.12
2016-09-30T06:54:31.619Z,1003.14
2016-09-30T06:55:31.789Z,1003.11
2016-09-30T06:56:32.198Z,1003.14
2016-09-30T06:57:31.786Z,1003.09
2016-09-30T06:58:31.901Z,1003.09
2016-09-30T06:59:31.961Z,1003.12
2016-09-30T07:00:31.884Z,1003.16
2016-09-30T07:01:31.928Z,1003.18
2016-09-30T07:02:32.048Z,1003.2
2016-09-30T07:03:31.951Z,1003.21
2016-09-30T07:04:32.595Z,1003.25
2016-09-30T07:05:31.998Z,1003.32
2016-09-30T07:06:32.074Z,1003.33
2016-09-30T07:07:32.670Z,1003.33
2016-09-30T07:08:32.490Z,1003.39
2016-09-30T07:09:32.682Z,1003.4
2016-09-30T07:10:31.951Z,1003.39
2016-09-30T07:11:32.104Z,1003.4
2016-09-30T07:12:32.316Z,1003.36
2016-09-30T07:13:32.615Z,1003.38
2016-09-30T07:14:32.320Z,1003.36
2016-09-30T07:15:32.413Z,1003.36
2016-09-30T07:16:32.366Z,1003.38
2016-09-30T07:17:32.776Z,1003.36
2016-09-30T07:18:32.442Z,1003.38
2016-09-30T07:19:32.377Z,1003.37
2016-09-30T07:20:32.572Z,1003.4
2016-09-30T07:21:32.638Z,1003.39
2016-09-30T07:22:32.494Z,1003.36
2016-09-30T07:23:32.523Z,1003.39
2016-09-30T07:24:32.376Z,1003.33
2016-09-30T07:25:32.482Z,1003.34
2016-09-30T07:26:32.772Z,1003.35
2016-09-30T07:27:32.436Z,1003.4
2016-09-30T07:28:32.760Z,1003.42
2016-09-30T07:29:32.598Z,1003.37
2016-09-30T07:30:32.839Z,1003.35
2016-09-30T07:31:32.425Z,1003.33
2016-09-30T07:32:32.563Z,1003.3
2016-09-30T07:33:32.601Z,1003.23
2016-09-30T07:34:32.576Z,1003.31
2016-09-30T07:35:32.734Z,1003.3
2016-09-30T07:36:32.885Z,1003.25
2016-09-30T07:37:32.743Z,1003.28
2016-09-30T07:38:32.804Z,1003.27
2016-09-30T07:39:33.095Z,1003.28
2016-09-30T07:40:32.949Z,1003.33
2016-09-30T07:41:32.947Z,1003.31
2016-09-30T07:42:32.926Z,1003.43
2016-09-30T07:43:32.862Z,1003.38
2016-09-30T07:44:32.820Z,1003.39
2016-09-30T07:45:33.218Z,1003.41
2016-09-30T07:46:33.040Z,1003.44
2016-09-30T07:47:32.959Z,1003.42
2016-09-30T07:48:32.985Z,1003.4
2016-09-30T07:49:32.953Z,1003.44
2016-09-30T07:50:33.196Z,1003.49
2016-09-30T07:51:33.266Z,1003.45
2016-09-30T07:52:32.874Z,1003.44
2016-09-30T07:53:33.078Z,1003.49
2016-09-30T07:54:33.214Z,1003.49
2016-09-30T07:55:33.055Z,1003.5
2016-09-30T07:56:32.994Z,1003.5
2016-09-30T07:57:33.079Z,1003.51
2016-09-30T07:58:33.085Z,1003.49
2016-09-30T07:59:33.124Z,1003.5
2016-09-30T08:00:33.113Z,1003.43
2016-09-30T08:01:33.331Z,1003.43
2016-09-30T08:02:33.902Z,1003.44
2016-09-30T08:03:33.222Z,1003.45
2016-09-30T08:04:33.891Z,1003.38
2016-09-30T08:05:33.740Z,1003.39
2016-09-30T08:06:33.364Z,1003.46
2016-09-30T08:07:33.382Z,1003.54
2016-09-30T08:08:33.781Z,1003.57
2016-09-30T08:09:33.438Z,1003.58
2016-09-30T08:10:33.387Z,1003.61
2016-09-30T08:11:33.792Z,1003.62
2016-09-30T08:12:33.535Z,1003.59
2016-09-30T08:13:33.507Z,1003.7
2016-09-30T08:14:33.537Z,1003.67
2016-09-30T08:15:33.748Z,1003.66
2016-09-30T08:16:33.965Z,1003.7
2016-09-30T08:17:33.824Z,1003.69
2016-09-30T08:18:33.463Z,1003.75
2016-09-30T08:19:33.594Z,1003.79
2016-09-30T08:20:33.592Z,1003.79
2016-09-30T08:21:33.908Z,1003.78
2016-09-30T08:22:33.826Z,1003.84
2016-09-30T08:23:33.597Z,1003.92
2016-09-30T08:24:33.624Z,1003.9
2016-09-30T08:25:34.220Z,1003.88
2016-09-30T08:26:34.200Z,1003.88
2016-09-30T08:27:34.077Z,1003.85
2016-09-30T08:28:33.913Z,1003.85
2016-09-30T08:29:33.810Z,1003.84
2016-09-30T08:30:34.427Z,1003.92
2016-09-30T08:31:34.014Z,1003.89
2016-09-30T08:32:33.931Z,1003.91
2016-09-30T08:33:33.854Z,1003.97
2016-09-30T08:34:33.835Z,1003.95
2016-09-30T08:35:33.840Z,1003.99
2016-09-30T08:36:33.974Z,1003.96
2016-09-30T08:37:34.242Z,1003.94
2016-09-30T08:38:34.414Z,1004
2016-09-30T08:39:34.027Z,1003.94
2016-09-30T08:40:34.967Z,1003.93
2016-09-30T08:41:34.234Z,1003.91
2016-09-30T08:42:34.160Z,1003.93
2016-09-30T08:43:34.247Z,1003.93
2016-09-30T08:44:34.213Z,1004.01
2016-09-30T08:45:34.606Z,1003.95
2016-09-30T08:46:34.392Z,1003.99
2016-09-30T08:47:34.338Z,1003.97
2016-09-30T08:48:34.366Z,1003.98
2016-09-30T08:49:34.968Z,1003.95
2016-09-30T08:50:34.755Z,1003.94
2016-09-30T08:51:34.171Z,1003.97
2016-09-30T08:52:34.486Z,1003.99
2016-09-30T08:53:34.480Z,1004
2016-09-30T08:54:34.875Z,1004.05
2016-09-30T08:55:34.631Z,1004.05
2016-09-30T08:56:34.725Z,1004.07
2016-09-30T08:57:34.713Z,1003.95
2016-09-30T08:58:34.461Z,1004
2016-09-30T08:59:35.056Z,1004
2016-09-30T09:00:34.730Z,1003.99
2016-09-30T09:01:35.019Z,1004.01
2016-09-30T09:02:34.830Z,1004.08
2016-09-30T09:03:34.844Z,1004.05
2016-09-30T09:04:34.835Z,1003.99
2016-09-30T09:05:34.580Z,1003.94
2016-09-30T09:06:34.733Z,1004.01
2016-09-30T09:07:34.825Z,1003.95
2016-09-30T09:08:34.918Z,1003.95
2016-09-30T09:09:34.955Z,1003.91
2016-09-30T09:10:34.738Z,1003.88
2016-09-30T09:11:35.181Z,1003.87
2016-09-30T09:12:35.170Z,1003.86
2016-09-30T09:13:34.912Z,1003.84
2016-09-30T09:14:34.888Z,1003.83
2016-09-30T09:15:34.942Z,1003.83
2016-09-30T09:16:35.109Z,1003.88
2016-09-30T09:17:35.072Z,1003.81
2016-09-30T09:18:35.234Z,1003.81
2016-09-30T09:19:35.082Z,1003.78
2016-09-30T09:20:34.889Z,1003.79
2016-09-30T09:21:35.367Z,1003.84
2016-09-30T09:22:34.914Z,1003.8
2016-09-30T09:23:34.955Z,1003.81
2016-09-30T09:24:35.413Z,1003.84
2016-09-30T09:25:35.110Z,1003.8
2016-09-30T09:26:35.280Z,1003.81
2016-09-30T09:27:35.367Z,1003.79
2016-09-30T09:28:35.556Z,1003.81
2016-09-30T09:29:35.182Z,1003.84
2016-09-30T09:30:35.195Z,1003.88
2016-09-30T09:31:35.301Z,1003.87
2016-09-30T09:32:35.587Z,1003.88
2016-09-30T09:33:35.265Z,1003.83
2016-09-30T09:34:35.304Z,1003.82
2016-09-30T09:35:35.306Z,1003.85
2016-09-30T09:36:35.435Z,1003.78
2016-09-30T09:37:35.651Z,1003.8
2016-09-30T09:38:35.483Z,1003.83
2016-09-30T09:39:35.498Z,1003.81
2016-09-30T09:40:35.393Z,1003.8
2016-09-30T09:41:35.747Z,1003.79
2016-09-30T09:42:36.036Z,1003.79
2016-09-30T09:43:35.663Z,1003.74
2016-09-30T09:44:35.637Z,1003.72
2016-09-30T09:45:35.905Z,1003.73
2016-09-30T09:46:35.780Z,1003.75
2016-09-30T09:47:35.856Z,1003.76
2016-09-30T09:48:35.650Z,1003.74
2016-09-30T09:49:36.097Z,1003.66
2016-09-30T09:50:35.909Z,1003.79
2016-09-30T09:51:35.951Z,1003.74
2016-09-30T09:52:35.665Z,1003.72
2016-09-30T09:53:36.341Z,1003.68
2016-09-30T09:54:36.245Z,1003.66
2016-09-30T09:55:36.035Z,1003.65
2016-09-30T09:56:36.045Z,1003.6
2016-09-30T09:57:36.107Z,1003.55
2016-09-30T09:58:36.000Z,1003.55
2016-09-30T09:59:35.990Z,1003.63
2016-09-30T10:00:36.174Z,1003.58
2016-09-30T10:01:35.912Z,1003.56
2016-09-30T10:02:36.179Z,1003.68
2016-09-30T10:03:36.194Z,1003.65
2016-09-30T10:04:36.568Z,1003.63
2016-09-30T10:05:36.183Z,1003.63
2016-09-30T10:06:36.155Z,1003.66
2016-09-30T10:07:36.410Z,1003.63
2016-09-30T10:08:36.304Z,1003.62
2016-09-30T10:09:36.333Z,1003.6
2016-09-30T10:10:36.558Z,1003.64
2016-09-30T10:11:36.599Z,1003.64
2016-09-30T10:12:36.929Z,1003.64
2016-09-30T10:13:37.204Z,1003.69
2016-09-30T10:14:36.729Z,1003.64
2016-09-30T10:15:36.917Z,1003.67
2016-09-30T10:16:36.368Z,1003.68
2016-09-30T10:17:36.447Z,1003.66
2016-09-30T10:18:36.674Z,1003.62
2016-09-30T10:19:36.541Z,1003.65
2016-09-30T10:20:36.657Z,1003.64
2016-09-30T10:21:36.593Z,1003.68
2016-09-30T10:22:36.752Z,1003.66
2016-09-30T10:23:36.634Z,1003.66
2016-09-30T10:24:36.754Z,1003.62
2016-09-30T10:25:36.944Z,1003.66
2016-09-30T10:26:36.700Z,1003.63
2016-09-30T10:27:36.921Z,1003.63
2016-09-30T10:28:36.779Z,1003.61
2016-09-30T10:29:37.328Z,1003.63
2016-09-30T10:30:37.107Z,1003.62
2016-09-30T10:31:36.810Z,1003.63
2016-09-30T10:32:37.089Z,1003.6
2016-09-30T10:33:36.921Z,1003.59
2016-09-30T10:34:36.869Z,1003.59
2016-09-30T10:35:36.905Z,1003.68
2016-09-30T10:36:37.115Z,1003.7
2016-09-30T10:37:37.222Z,1003.63
2016-09-30T10:38:37.356Z,1003.63
2016-09-30T10:39:37.193Z,1003.66
2016-09-30T10:40:37.193Z,1003.7
2016-09-30T10:41:38.176Z,1003.76
2016-09-30T10:42:37.188Z,1003.72
2016-09-30T10:43:37.113Z,1003.74
2016-09-30T10:44:37.678Z,1003.76
2016-09-30T10:45:37.302Z,1003.76
2016-09-30T10:46:37.307Z,1003.77
2016-09-30T10:47:37.442Z,1003.78
2016-09-30T10:48:37.315Z,1003.72
2016-09-30T10:49:37.297Z,1003.65
2016-09-30T10:50:37.338Z,1003.64
2016-09-30T10:51:37.428Z,1003.63
2016-09-30T10:52:37.331Z,1003.69
2016-09-30T10:53:37.592Z,1003.69
2016-09-30T10:54:37.838Z,1003.73
2016-09-30T10:55:37.582Z,1003.77
2016-09-30T10:56:37.529Z,1003.73
2016-09-30T10:57:38.034Z,1003.67
2016-09-30T10:58:37.440Z,1003.6
2016-09-30T10:59:37.757Z,1003.63
2016-09-30T11:00:37.559Z,1003.63
2016-09-30T11:01:37.824Z,1003.53
2016-09-30T11:02:37.849Z,1003.54
2016-09-30T11:03:37.712Z,1003.56
2016-09-30T11:04:37.900Z,1003.6
2016-09-30T11:05:37.696Z,1003.67
2016-09-30T11:06:37.640Z,1003.67
2016-09-30T11:07:38.027Z,1003.69
2016-09-30T11:08:38.110Z,1003.76
2016-09-30T11:09:37.843Z,1003.77
2016-09-30T11:10:38.212Z,1003.74
2016-09-30T11:11:37.860Z,1003.84
2016-09-30T11:12:37.885Z,1003.84
2016-09-30T11:13:37.919Z,1003.94
2016-09-30T11:15:38.768Z,1003.75
2016-09-30T11:16:38.487Z,1003.77
2016-09-30T11:17:38.579Z,1003.69
2016-09-30T11:18:38.383Z,1003.7
2016-09-30T11:19:38.324Z,1003.64
2016-09-30T11:20:38.497Z,1003.64
2016-09-30T11:21:38.193Z,1003.71
2016-09-30T11:22:38.181Z,1003.73
2016-09-30T11:23:38.305Z,1003.69
2016-09-30T11:24:38.346Z,1003.67
2016-09-30T11:25:38.332Z,1003.72
2016-09-30T11:26:38.617Z,1003.69
2016-09-30T11:27:38.511Z,1003.71
2016-09-30T11:28:38.308Z,1003.72
2016-09-30T11:29:38.604Z,1003.63
2016-09-30T11:30:38.381Z,1003.63
2016-09-30T11:31:38.801Z,1003.76
2016-09-30T11:32:38.590Z,1003.72
2016-09-30T11:33:38.585Z,1003.81
2016-09-30T11:34:38.835Z,1003.84
2016-09-30T11:35:39.175Z,1003.81
2016-09-30T11:36:38.704Z,1003.86
2016-09-30T11:37:39.181Z,1003.76
2016-09-30T11:38:38.692Z,1003.69
2016-09-30T11:39:39.017Z,1003.7
2016-09-30T11:40:38.714Z,1003.7
2016-09-30T11:41:38.933Z,1003.69
2016-09-30T11:42:39.651Z,1003.73
2016-09-30T11:43:38.983Z,1003.68
2016-09-30T11:44:39.162Z,1003.72
2016-09-30T11:45:39.760Z,1003.84
2016-09-30T11:46:39.332Z,1003.83
2016-09-30T11:47:40.212Z,1003.82
2016-09-30T11:48:39.050Z,1003.82
2016-09-30T11:49:39.102Z,1003.8
2016-09-30T11:50:38.956Z,1003.73
2016-09-30T11:51:38.956Z,1003.73
2016-09-30T11:52:39.267Z,1003.74
2016-09-30T11:53:39.060Z,1003.74
2016-09-30T11:54:39.065Z,1003.74
2016-09-30T11:55:39.300Z,1003.76
2016-09-30T11:56:39.425Z,1003.81
2016-09-30T11:57:39.292Z,1003.76
2016-09-30T11:58:39.684Z,1003.71
2016-09-30T11:59:39.981Z,1003.66
2016-09-30T12:00:39.403Z,1003.7
2016-09-30T12:01:40.139Z,1003.67
2016-09-30T12:02:39.460Z,1003.66
2016-09-30T12:03:39.365Z,1003.66
2016-09-30T12:04:39.782Z,1003.72
2016-09-30T12:05:40.081Z,1003.69
2016-09-30T12:06:39.422Z,1003.71
2016-09-30T12:07:39.618Z,1003.75
2016-09-30T12:08:39.719Z,1003.79
2016-09-30T12:09:39.790Z,1003.78